Time;durP1;ratioP1;P1;durP2;ratioP2;P2;SDS_P1;SDS_P2;PMS_P1;PMS_P2;Temp;Humidity;BMP_temperature;BMP_pressure;BME280_temperature;BME280_humidity;BME280_pressure;Samples;Min_cycle;Max_cycle;Signal;HPM_P1;HPM_P2
2021/08/02 00:01:01;;;;;;;8.73;4.00;;;;;;;;;;4972684;28;20041;-79
2021/08/02 00:03:50;;;;;;;9.00;4.60;;;;;;;;;;4972847;28;20476;-79
2021/08/02 00:06:22;;;;;;;9.60;4.68;;;;;;;;;;4973081;28;20628;-79
2021/08/02 00:09:07;;;;;;;7.85;4.28;;;;;;;;;;4972716;28;20055;-80
2021/08/02 00:11:39;;;;;;;14.95;4.85;;;;;;;;;;4972610;28;20031;-80
2021/08/02 00:14:07;;;;;;;8.75;4.70;;;;;;;;;;4972615;28;20019;-79
2021/08/02 00:16:34;;;;;;;7.93;4.30;;;;;;;;;;4972941;28;20137;-79
2021/08/02 00:19:00;;;;;;;7.13;4.00;;;;;;;;;;4972423;28;20031;-80
2021/08/02 00:21:26;;;;;;;10.07;4.57;;;;;;;;;;4972632;28;20503;-79
2021/08/02 00:23:53;;;;;;;11.70;4.40;;;;;;;;;;4972888;28;20031;-80
2021/08/02 00:26:20;;;;;;;9.05;5.25;;;;;;;;;;4956341;28;20078;-80
2021/08/02 00:28:46;;;;;;;9.20;4.60;;;;;;;;;;4985571;28;20130;-79
2021/08/02 00:31:12;;;;;;;10.95;4.65;;;;;;;;;;5073406;28;20020;-79
2021/08/02 00:33:38;;;;;;;6.85;3.85;;;;;;;;;;5073120;28;20025;-80
2021/08/02 00:36:14;;;;;;;8.20;4.25;;;;;;;;;;5073525;28;20062;-79
2021/08/02 00:38:52;;;;;;;7.28;4.00;;;;;;;;;;5073671;28;20106;-82
2021/08/02 00:41:28;;;;;;;9.63;5.18;;;;;;;;;;5075249;28;20021;-79
2021/08/02 00:44:04;;;;;;;;;;;;;;;;;;5077702;28;20082;-79
2021/08/02 00:46:37;;;;;;;9.13;3.45;;;;;;;;;;5077200;28;19919;-79
2021/08/02 00:49:06;;;;;;;10.23;4.88;;;;;;;;;;5076974;28;20537;-79
2021/08/02 00:51:58;;;;;;;9.90;3.65;;;;;;;;;;5076780;28;20111;-80
2021/08/02 00:54:26;;;;;;;7.25;4.13;;;;;;;;;;5072546;28;20068;-80
2021/08/02 00:56:56;;;;;;;6.75;3.92;;;;;;;;;;5077059;28;20031;-80
2021/08/02 00:59:27;;;;;;;8.07;5.15;;;;;;;;;;5076885;28;20418;-80
2021/08/02 01:01:54;;;;;;;8.23;3.95;;;;;;;;;;5076970;28;20112;-80
2021/08/02 01:04:20;;;;;;;7.25;3.45;;;;;;;;;;5076885;28;20024;-80
2021/08/02 01:06:47;;;;;;;7.32;3.63;;;;;;;;;;5076528;28;20050;-80
2021/08/02 01:09:16;;;;;;;7.90;4.30;;;;;;;;;;5076419;28;20124;-80
2021/08/02 01:11:43;;;;;;;10.10;4.25;;;;;;;;;;5076578;28;20020;-80
2021/08/02 01:14:10;;;;;;;9.38;4.63;;;;;;;;;;5076511;28;20024;-80
2021/08/02 01:16:39;;;;;;;8.43;4.18;;;;;;;;;;5076972;28;20098;-80
2021/08/02 01:19:08;;;;;;;8.75;4.43;;;;;;;;;;5076744;28;20143;-81
2021/08/02 01:21:38;;;;;;;11.23;4.07;;;;;;;;;;5077086;28;20025;-80
2021/08/02 01:24:06;;;;;;;8.93;3.63;;;;;;;;;;5077190;28;20024;-81
2021/08/02 01:26:44;;;;;;;7.20;4.38;;;;;;;;;;5060253;28;20075;-79
2021/08/02 01:29:46;;;;;;;7.85;3.85;;;;;;;;;;5083782;28;20008;-81
2021/08/02 01:32:13;;;;;;;5.97;3.17;;;;;;;;;;5069994;28;20028;-79
2021/08/02 01:34:39;;;;;;;8.13;3.50;;;;;;;;;;5076279;28;20031;-79
2021/08/02 01:37:05;;;;;;;7.90;3.50;;;;;;;;;;5076605;28;20384;-79
2021/08/02 01:39:33;;;;;;;10.23;4.05;;;;;;;;;;5075975;28;20108;-79
2021/08/02 01:42:00;;;;;;;9.57;4.18;;;;;;;;;;5058230;28;20036;-79
2021/08/02 01:44:26;;;;;;;11.98;3.75;;;;;;;;;;5075959;28;20025;-79
2021/08/02 01:47:05;;;;;;;9.23;4.45;;;;;;;;;;5075940;28;20027;-79
2021/08/02 01:49:45;;;;;;;6.78;3.50;;;;;;;;;;5075889;28;20028;-79
2021/08/02 01:52:24;;;;;;;7.25;3.72;;;;;;;;;;5075419;28;20066;-79
2021/08/02 01:54:58;;;;;;;8.43;4.18;;;;;;;;;;5075777;28;20020;-79
2021/08/02 01:57:44;;;;;;;7.03;3.95;;;;;;;;;;5075820;28;20028;-79
2021/08/02 02:00:13;;;;;;;10.18;4.05;;;;;;;;;;5075605;28;20029;-79
2021/08/02 02:02:42;;;;;;;8.73;3.67;;;;;;;;;;5075498;28;20024;-79
2021/08/02 02:05:15;;;;;;;9.30;4.97;;;;;;;;;;5075596;28;20059;-79
2021/08/02 02:07:46;;;;;;;7.57;3.83;;;;;;;;;;5075643;28;20111;-80
2021/08/02 02:10:14;;;;;;;8.18;3.80;;;;;;;;;;5075327;28;20071;-79
2021/08/02 02:12:43;;;;;;;8.63;4.93;;;;;;;;;;5057373;28;20400;-79
2021/08/02 02:15:09;;;;;;;9.95;4.68;;;;;;;;;;5075551;28;20021;-79
2021/08/02 02:17:37;;;;;;;10.00;4.03;;;;;;;;;;5075193;28;20028;-79
2021/08/02 02:20:04;;;;;;;8.68;4.30;;;;;;;;;;5075086;28;20025;-80
2021/08/02 02:22:31;;;;;;;10.35;4.03;;;;;;;;;;5075133;28;20049;-79
2021/08/02 02:24:58;;;;;;;6.35;3.33;;;;;;;;;;5075474;28;20586;-79
2021/08/02 02:27:24;;;;;;;8.48;4.13;;;;;;;;;;5075006;28;20036;-79
2021/08/02 02:29:51;;;;;;;7.28;3.33;;;;;;;;;;5075236;28;20024;-79
2021/08/02 02:32:17;;;;;;;6.82;2.90;;;;;;;;;;5074841;28;20023;-80
2021/08/02 02:34:45;;;;;;;9.57;3.40;;;;;;;;;;5057073;28;20028;-79
2021/08/02 02:37:11;;;;;;;6.78;3.50;;;;;;;;;;5074822;28;20017;-79
2021/08/02 02:39:38;;;;;;;8.95;4.63;;;;;;;;;;5075027;28;20385;-80
2021/08/02 02:42:04;;;;;;;9.05;4.10;;;;;;;;;;5074952;28;20082;-79
2021/08/02 02:44:31;;;;;;;6.72;3.92;;;;;;;;;;5074706;28;20059;-79
2021/08/02 02:46:58;;;;;;;10.50;4.13;;;;;;;;;;5074847;28;20032;-79
2021/08/02 02:49:24;;;;;;;6.40;3.83;;;;;;;;;;5074510;28;20063;-79
2021/08/02 02:51:50;;;;;;;9.65;3.22;;;;;;;;;;5074817;28;20035;-79
2021/08/02 02:54:19;;;;;;;7.22;3.67;;;;;;;;;;5056754;28;20099;-79
2021/08/02 02:56:45;;;;;;;6.82;3.22;;;;;;;;;;5074429;28;20119;-79
2021/08/02 02:59:10;;;;;;;7.97;3.38;;;;;;;;;;5074592;28;20028;-80
2021/08/02 03:01:43;;;;;;;9.75;4.85;;;;;;;;;;5074381;28;20035;-79
2021/08/02 03:04:10;;;;;;;8.15;4.05;;;;;;;;;;5073635;28;20069;-79
2021/08/02 03:06:36;;;;;;;7.38;4.13;;;;;;;;;;5074654;28;20421;-79
2021/08/02 03:09:03;;;;;;;9.00;4.25;;;;;;;;;;5073936;28;20036;-79
2021/08/02 03:11:29;;;;;;;8.45;3.83;;;;;;;;;;5074215;28;20028;-79
2021/08/02 03:13:56;;;;;;;9.40;4.88;;;;;;;;;;5056183;28;20502;-79
2021/08/02 03:16:24;;;;;;;6.65;3.95;;;;;;;;;;5074134;28;20032;-79
2021/08/02 03:18:50;;;;;;;7.80;3.58;;;;;;;;;;5074187;28;20029;-79
2021/08/02 03:21:17;;;;;;;7.35;4.38;;;;;;;;;;5074364;28;20052;-79
2021/08/02 03:23:52;;;;;;;7.88;3.95;;;;;;;;;;5073980;28;20523;-79
2021/08/02 03:26:24;;;;;;;7.60;3.88;;;;;;;;;;5074210;28;20078;-79
2021/08/02 03:29:00;;;;;;;10.18;4.53;;;;;;;;;;5074723;28;20035;-79
2021/08/02 03:31:38;;;;;;;9.57;4.03;;;;;;;;;;5073986;28;20480;-79
2021/08/02 03:34:06;;;;;;;12.60;3.60;;;;;;;;;;5055948;28;20392;-79
2021/08/02 03:36:32;;;;;;;6.63;3.05;;;;;;;;;;5073847;28;20043;-79
2021/08/02 03:38:59;;;;;;;9.23;4.10;;;;;;;;;;5073725;28;20052;-79
2021/08/02 03:41:26;;;;;;;11.85;5.15;;;;;;;;;;5073705;28;20028;-80
2021/08/02 03:43:53;;;;;;;9.23;3.65;;;;;;;;;;5073688;28;20379;-79
2021/08/02 03:46:20;;;;;;;9.35;4.20;;;;;;;;;;5073993;28;20099;-79
2021/08/02 03:48:46;;;;;;;7.53;4.22;;;;;;;;;;5073652;28;20036;-79
2021/08/02 03:51:12;;;;;;;8.90;4.05;;;;;;;;;;5073608;28;20077;-78
2021/08/02 03:53:46;;;;;;;10.00;3.95;;;;;;;;;;5073511;28;20111;-79
2021/08/02 03:56:15;;;;;;;9.95;4.05;;;;;;;;;;5073682;28;20085;-79
2021/08/02 03:58:40;;;;;;;9.25;4.30;;;;;;;;;;5073408;28;20388;-82
2021/08/02 04:01:06;;;;;;;6.95;3.17;;;;;;;;;;5055578;28;20024;-79
2021/08/02 04:03:32;;;;;;;8.40;3.83;;;;;;;;;;5073500;28;20024;-79
2021/08/02 04:05:59;;;;;;;7.07;3.22;;;;;;;;;;5073482;28;20025;-80
2021/08/02 04:08:28;;;;;;;6.28;3.60;;;;;;;;;;5073404;28;20416;-79
2021/08/02 04:10:54;;;;;;;7.65;3.75;;;;;;;;;;5073884;28;20461;-79
2021/08/02 04:13:20;;;;;;;10.63;3.35;;;;;;;;;;5073730;28;20037;-79
2021/08/02 04:15:46;;;;;;;6.88;3.65;;;;;;;;;;5075975;28;20033;-79
2021/08/02 04:18:12;;;;;;;8.25;4.07;;;;;;;;;;5078018;28;20052;-79
2021/08/02 04:20:38;;;;;;;10.70;4.28;;;;;;;;;;5077737;28;20079;-79
2021/08/02 04:23:03;;;;;;;9.60;4.82;;;;;;;;;;5078196;28;20031;-79
2021/08/02 04:25:29;;;;;;;7.80;4.78;;;;;;;;;;5077448;28;20491;-79
2021/08/02 04:27:55;;;;;;;7.60;3.15;;;;;;;;;;5077261;28;20511;-79
2021/08/02 04:30:21;;;;;;;9.32;4.60;;;;;;;;;;5077617;28;20032;-81
2021/08/02 04:32:47;;;;;;;7.43;3.58;;;;;;;;;;5059429;28;20380;-79
2021/08/02 04:35:13;;;;;;;7.78;3.33;;;;;;;;;;5077291;28;20021;-79
2021/08/02 04:37:39;;;;;;;8.23;3.72;;;;;;;;;;5077357;28;20029;-79
2021/08/02 04:40:06;;;;;;;6.70;3.53;;;;;;;;;;5059006;28;20028;-79
2021/08/02 04:42:36;;;;;;;10.70;3.85;;;;;;;;;;5077030;28;20032;-79
2021/08/02 04:45:04;;;;;;;6.60;3.85;;;;;;;;;;5077292;28;20081;-79
2021/08/02 04:47:29;;;;;;;8.32;4.03;;;;;;;;;;5077009;28;20078;-79
2021/08/02 04:49:55;;;;;;;7.90;3.95;;;;;;;;;;5077138;28;20040;-79
2021/08/02 04:52:21;;;;;;;9.65;3.15;;;;;;;;;;5077767;28;20021;-81
2021/08/02 04:54:47;;;;;;;5.93;2.92;;;;;;;;;;5079825;28;20025;-81
2021/08/02 04:57:12;;;;;;;9.38;6.03;;;;;;;;;;5077658;28;20035;-82
2021/08/02 04:59:39;;;;;;;7.32;3.65;;;;;;;;;;5077329;28;20040;-81
2021/08/02 05:02:06;;;;;;;7.30;3.85;;;;;;;;;;5077219;28;20016;-79
2021/08/02 05:04:32;;;;;;;9.90;3.95;;;;;;;;;;5076994;28;20073;-80
2021/08/02 05:06:58;;;;;;;7.75;4.03;;;;;;;;;;5076710;28;20029;-81
2021/08/02 05:09:24;;;;;;;7.30;3.30;;;;;;;;;;5076324;28;20036;-79
2021/08/02 05:11:52;;;;;;;12.02;3.03;;;;;;;;;;5076493;28;20021;-79
2021/08/02 05:14:18;;;;;;;13.30;7.53;;;;;;;;;;5076748;28;20406;-79
2021/08/02 05:16:44;;;;;;;26.60;13.02;;;;;;;;;;5076464;28;20036;-79
2021/08/02 05:19:11;;;;;;;18.10;11.38;;;;;;;;;;5076385;28;20032;-79
2021/08/02 05:21:37;;;;;;;23.40;10.77;;;;;;;;;;5076509;28;20028;-79
2021/08/02 05:24:02;;;;;;;16.85;9.23;;;;;;;;;;5076638;28;20020;-79
2021/08/02 05:26:28;;;;;;;23.30;10.20;;;;;;;;;;5075477;28;20067;-78
2021/08/02 05:28:54;;;;;;;16.63;7.05;;;;;;;;;;5076228;28;20029;-78
2021/08/02 05:31:19;;;;;;;8.07;3.67;;;;;;;;;;5076198;28;20431;-80
2021/08/02 05:33:45;;;;;;;5.53;3.28;;;;;;;;;;5075995;28;20439;-79
2021/08/02 05:36:11;;;;;;;11.70;3.90;;;;;;;;;;5076380;28;20024;-80
2021/08/02 05:38:36;;;;;;;8.55;3.08;;;;;;;;;;5079461;28;20032;-84
2021/08/02 05:41:02;;;;;;;8.02;3.85;;;;;;;;;;5081068;28;20021;-85
2021/08/02 05:43:28;;;;;;;10.32;4.90;;;;;;;;;;5079103;28;20028;-87
2021/08/02 05:45:54;;;;;;;7.47;3.53;;;;;;;;;;5077886;28;20048;-87
2021/08/02 05:48:20;;;;;;;6.22;2.78;;;;;;;;;;5077781;28;20028;-88
2021/08/02 05:50:45;;;;;;;6.78;2.75;;;;;;;;;;5080988;28;20534;-90
2021/08/02 05:53:11;;;;;;;8.70;2.83;;;;;;;;;;5084789;28;20071;-85
2021/08/02 05:55:37;;;;;;;9.68;6.10;;;;;;;;;;5088165;28;20064;-80
2021/08/02 05:58:02;;;;;;;7.05;3.03;;;;;;;;;;5079360;28;20029;-81
2021/08/02 06:00:28;;;;;;;7.80;2.50;;;;;;;;;;5073471;28;20032;-82
2021/08/02 06:02:54;;;;;;;5.88;3.47;;;;;;;;;;5060608;28;20505;-78
2021/08/02 06:05:19;;;;;;;8.15;3.03;;;;;;;;;;5060759;28;20196;-78
2021/08/02 06:07:45;;;;;;;8.10;3.90;;;;;;;;;;5059646;28;20028;-77
2021/08/02 06:10:12;;;;;;;9.48;4.00;;;;;;;;;;5058891;28;20053;-81
2021/08/02 06:12:38;;;;;;;8.98;3.00;;;;;;;;;;5055793;28;20029;-84
2021/08/02 06:15:05;;;;;;;9.70;4.10;;;;;;;;;;5059317;28;20476;-83
2021/08/02 06:17:31;;;;;;;6.80;2.83;;;;;;;;;;5075304;28;20037;-86
2021/08/02 06:19:57;;;;;;;7.20;2.55;;;;;;;;;;5075264;28;20033;-83
2021/08/02 06:22:22;;;;;;;6.97;4.25;;;;;;;;;;5075282;28;20035;-85
2021/08/02 06:24:48;;;;;;;10.45;2.35;;;;;;;;;;5075037;28;20021;-80
2021/08/02 06:27:13;;;;;;;9.05;3.30;;;;;;;;;;5074846;28;20028;-80
2021/08/02 06:29:39;;;;;;;6.60;2.97;;;;;;;;;;5075940;28;20515;-79
2021/08/02 06:32:08;;;;;;;11.55;4.68;;;;;;;;;;5076814;28;20024;-79
2021/08/02 06:34:34;;;;;;;5.90;3.22;;;;;;;;;;5058897;28;20043;-82
2021/08/02 06:37:00;;;;;;;9.82;2.97;;;;;;;;;;5076126;28;20093;-79
2021/08/02 06:39:26;;;;;;;8.65;3.45;;;;;;;;;;5074991;28;20384;-79
2021/08/02 06:41:52;;;;;;;7.03;3.85;;;;;;;;;;5074823;28;20020;-79
2021/08/02 06:44:17;;;;;;;9.25;2.72;;;;;;;;;;5074954;28;20074;-81
2021/08/02 06:46:44;;;;;;;7.13;3.03;;;;;;;;;;5080853;28;20020;-80
2021/08/02 06:49:09;;;;;;;8.88;3.33;;;;;;;;;;5078583;28;20021;-79
2021/08/02 06:51:35;;;;;;;7.25;2.70;;;;;;;;;;5079162;28;20103;-83
2021/08/02 06:54:01;;;;;;;11.10;3.33;;;;;;;;;;5076900;28;20116;-84
2021/08/02 06:56:26;;;;;;;8.25;3.80;;;;;;;;;;5074501;28;20021;-84
2021/08/02 06:58:52;;;;;;;14.18;3.80;;;;;;;;;;5061994;28;20031;-80
2021/08/02 07:01:21;;;;;;;9.23;3.55;;;;;;;;;;5083660;28;20031;-79
2021/08/02 07:03:55;;;;;;;10.02;4.05;;;;;;;;;;5079764;28;20021;-77
2021/08/02 07:06:24;;;;;;;9.48;3.90;;;;;;;;;;5077979;28;20026;-78
2021/08/02 07:08:51;;;;;;;8.82;3.85;;;;;;;;;;5078272;28;20183;-83
2021/08/02 07:11:16;;;;;;;7.63;3.13;;;;;;;;;;5077424;28;20036;-84
2021/08/02 07:13:45;;;;;;;7.75;3.55;;;;;;;;;;5076408;28;20024;-83
2021/08/02 07:16:11;;;;;;;7.00;3.35;;;;;;;;;;5077411;28;20079;-79
2021/08/02 07:18:37;;;;;;;10.55;3.30;;;;;;;;;;5079068;28;20050;-79
2021/08/02 07:21:03;;;;;;;8.23;3.15;;;;;;;;;;5079579;28;20054;-79
2021/08/02 07:23:28;;;;;;;7.55;4.10;;;;;;;;;;5060191;28;20066;-86
2021/08/02 07:25:54;;;;;;;8.85;3.42;;;;;;;;;;5057628;28;20047;-85
2021/08/02 07:28:20;;;;;;;10.20;4.28;;;;;;;;;;5079265;28;20025;-79
2021/08/02 07:30:46;;;;;;;9.35;3.90;;;;;;;;;;5059779;28;20047;-80
2021/08/02 07:33:11;;;;;;;10.38;3.08;;;;;;;;;;5059758;28;20039;-83
2021/08/02 07:35:37;;;;;;;7.18;2.85;;;;;;;;;;5074786;28;20473;-79
2021/08/02 07:38:02;;;;;;;6.68;3.05;;;;;;;;;;5075373;28;20025;-80
2021/08/02 07:40:28;;;;;;;12.90;3.78;;;;;;;;;;5074754;28;20388;-86
2021/08/02 07:42:54;;;;;;;8.00;2.83;;;;;;;;;;5074738;28;20025;-86
2021/08/02 07:45:20;;;;;;;9.73;3.38;;;;;;;;;;5074990;28;20024;-87
2021/08/02 07:47:45;;;;;;;9.82;3.30;;;;;;;;;;5074191;28;20031;-82
2021/08/02 07:50:12;;;;;;;9.18;3.67;;;;;;;;;;5074379;28;20099;-82
2021/08/02 07:52:39;;;;;;;9.70;3.08;;;;;;;;;;5075073;28;20045;-79
2021/08/02 07:55:05;;;;;;;6.82;2.88;;;;;;;;;;5074486;28;20028;-81
2021/08/02 07:57:31;;;;;;;12.60;4.53;;;;;;;;;;5056453;28;20024;-82
2021/08/02 07:59:57;;;;;;;9.10;3.42;;;;;;;;;;5056294;28;20044;-82
2021/08/02 08:02:23;;;;;;;10.45;6.10;;;;;;;;;;5057615;28;20396;-84
2021/08/02 08:04:48;;;;;;;8.70;3.08;;;;;;;;;;5077159;28;20025;-86
2021/08/02 08:07:14;;;;;;;7.88;3.10;;;;;;;;;;5075085;28;20097;-86
2021/08/02 08:09:40;;;;;;;8.27;3.90;;;;;;;;;;5074912;28;20086;-78
2021/08/02 08:12:07;;;;;;;8.70;3.72;;;;;;;;;;5074560;28;20048;-87
2021/08/02 08:14:32;;;;;;;10.15;3.55;;;;;;;;;;5074749;28;20104;-83
2021/08/02 08:16:58;;;;;;;8.85;3.35;;;;;;;;;;5074425;28;20028;-84
2021/08/02 08:19:24;;;;;;;9.18;3.60;;;;;;;;;;5074398;28;20070;-85
2021/08/02 08:21:49;;;;;;;11.10;3.78;;;;;;;;;;5074639;28;20021;-84
2021/08/02 08:24:15;;;;;;;8.98;4.43;;;;;;;;;;5056416;28;20404;-82
2021/08/02 08:26:41;;;;;;;7.68;3.13;;;;;;;;;;5073835;28;20063;-78
2021/08/02 08:29:07;;;;;;;7.63;3.67;;;;;;;;;;5074276;28;20468;-87
2021/08/02 08:31:33;;;;;;;6.72;3.30;;;;;;;;;;5074230;28;20032;-85
2021/08/02 08:33:59;;;;;;;11.15;3.97;;;;;;;;;;5074583;28;20048;-82
2021/08/02 08:36:25;;;;;;;9.85;3.75;;;;;;;;;;5074180;28;20027;-81
2021/08/02 08:38:50;;;;;;;13.50;4.20;;;;;;;;;;5056513;28;20047;-85
2021/08/02 08:41:20;;;;;;;6.20;3.15;;;;;;;;;;5074019;28;20028;-86
2021/08/02 08:43:50;;;;;;;10.05;3.85;;;;;;;;;;5074489;28;20031;-80
2021/08/02 08:46:21;;;;;;;13.15;3.85;;;;;;;;;;5055570;28;20488;-78
2021/08/02 08:48:47;;;;;;;6.78;3.60;;;;;;;;;;5074175;28;20032;-84
2021/08/02 08:51:13;;;;;;;8.05;3.85;;;;;;;;;;5073434;28;20024;-85
2021/08/02 08:53:44;;;;;;;8.68;3.55;;;;;;;;;;5073864;28;20031;-84
2021/08/02 08:56:14;;;;;;;9.20;4.82;;;;;;;;;;5074106;28;20020;-78
2021/08/02 08:58:39;;;;;;;8.52;3.70;;;;;;;;;;5074235;28;20033;-84
2021/08/02 09:01:05;;;;;;;9.43;3.88;;;;;;;;;;5074121;28;20484;-82
2021/08/02 09:03:40;;;;;;;9.70;4.15;;;;;;;;;;5062722;28;20016;-80
2021/08/02 09:06:09;;;;;;;7.90;3.80;;;;;;;;;;5066513;28;20028;-83
2021/08/02 09:08:41;;;;;;;;;;;;;;;;;;5080005;28;20072;-85
2021/08/02 09:11:07;;;;;;;9.25;3.65;;;;;;;;;;5078574;28;19939;-86
2021/08/02 09:13:36;;;;;;;12.77;4.20;;;;;;;;;;5078997;28;20465;-84
2021/08/02 09:16:21;;;;;;;15.13;3.05;;;;;;;;;;5078232;28;20484;-86
2021/08/02 09:19:04;;;;;;;12.75;3.10;;;;;;;;;;5077585;28;20024;-85
2021/08/02 09:21:42;;;;;;;9.68;3.58;;;;;;;;;;5060012;28;20175;-86
2021/08/02 09:24:08;;;;;;;10.02;3.75;;;;;;;;;;5078109;28;20031;-83
2021/08/02 09:26:39;;;;;;;10.15;3.50;;;;;;;;;;5076398;28;20020;-85
2021/08/02 09:29:05;;;;;;;11.68;4.20;;;;;;;;;;5076760;28;20353;-78
2021/08/02 09:31:36;;;;;;;7.95;3.38;;;;;;;;;;5077954;28;20024;-81
2021/08/02 09:34:07;;;;;;;5.85;2.65;;;;;;;;;;5077751;28;20050;-84
2021/08/02 09:36:38;;;;;;;10.70;3.40;;;;;;;;;;5077406;28;20033;-83
2021/08/02 09:39:12;;;;;;;12.18;3.65;;;;;;;;;;5077738;28;20427;-79
2021/08/02 09:41:37;;;;;;;10.18;4.22;;;;;;;;;;5078917;28;20358;-81
2021/08/02 09:44:05;;;;;;;8.82;2.95;;;;;;;;;;5079704;28;20035;-84
2021/08/02 09:46:31;;;;;;;11.27;3.60;;;;;;;;;;5076029;28;20027;-84
2021/08/02 09:49:02;;;;;;;6.85;2.47;;;;;;;;;;5076044;28;20028;-84
2021/08/02 09:51:41;;;;;;;10.48;3.20;;;;;;;;;;5075805;28;20081;-84
2021/08/02 09:54:06;;;;;;;15.90;4.25;;;;;;;;;;5075820;28;20078;-79
2021/08/02 09:56:32;;;;;;;10.68;3.38;;;;;;;;;;5079266;28;20024;-84
2021/08/02 09:58:58;;;;;;;8.02;3.10;;;;;;;;;;5077077;28;20025;-85
2021/08/02 10:01:24;;;;;;;12.07;2.90;;;;;;;;;;5077264;28;20507;-82
2021/08/02 10:03:49;;;;;;;5.90;2.50;;;;;;;;;;5076941;28;20112;-85
2021/08/02 10:06:16;;;;;;;12.10;3.30;;;;;;;;;;5076847;28;20028;-87
2021/08/02 10:08:43;;;;;;;10.35;2.72;;;;;;;;;;5077629;28;20123;-86
2021/08/02 10:11:09;;;;;;;10.43;2.90;;;;;;;;;;5059892;28;20021;-85
2021/08/02 10:13:43;;;;;;;12.68;3.35;;;;;;;;;;5058230;28;20021;-87
2021/08/02 10:16:14;;;;;;;7.88;2.47;;;;;;;;;;5081100;28;20468;-79
2021/08/02 10:19:03;;;;;;;8.52;2.53;;;;;;;;;;5082309;28;20365;-79
2021/08/02 10:21:48;;;;;;;8.73;3.30;;;;;;;;;;5081445;28;20025;-79
2021/08/02 10:24:16;;;;;;;9.45;2.63;;;;;;;;;;5082984;28;20028;-78
2021/08/02 10:27:04;;;;;;;8.68;3.05;;;;;;;;;;5084125;28;20050;-83
2021/08/02 10:29:43;;;;;;;13.13;3.28;;;;;;;;;;5086356;28;20024;-78
2021/08/02 10:32:27;;;;;;;10.73;2.53;;;;;;;;;;5064097;28;20018;-82
2021/08/02 10:34:55;;;;;;;6.00;2.65;;;;;;;;;;5058111;28;20021;-81
2021/08/02 10:37:39;;;;;;;6.90;2.95;;;;;;;;;;5057708;28;20044;-87
2021/08/02 10:40:09;;;;;;;6.13;2.78;;;;;;;;;;5056981;28;20036;-80
2021/08/02 10:42:46;;;;;;;7.22;2.70;;;;;;;;;;5057041;28;20020;-85
2021/08/02 10:45:11;;;;;;;8.38;2.47;;;;;;;;;;5057299;28;20029;-85
2021/08/02 10:47:42;;;;;;;9.55;2.35;;;;;;;;;;5056549;28;20075;-80
2021/08/02 10:50:11;;;;;;;12.32;3.60;;;;;;;;;;5040409;28;20097;-78
2021/08/02 10:52:37;;;;;;;7.35;2.78;;;;;;;;;;5057959;28;20028;-83
2021/08/02 10:55:16;;;;;;;9.93;3.35;;;;;;;;;;5056084;28;20420;-83
2021/08/02 10:57:42;;;;;;;8.85;2.88;;;;;;;;;;5056504;28;20025;-79
2021/08/02 11:00:20;;;;;;;9.52;2.72;;;;;;;;;;5061828;28;20056;-79
2021/08/02 11:02:52;;;;;;;6.22;3.22;;;;;;;;;;5054538;28;20024;-85
2021/08/02 11:05:22;;;;;;;9.10;2.38;;;;;;;;;;5056592;28;20020;-84
2021/08/02 11:07:48;;;;;;;9.00;2.33;;;;;;;;;;5037940;28;20048;-79
2021/08/02 11:10:15;;;;;;;10.10;2.67;;;;;;;;;;5056524;28;20484;-87
2021/08/02 11:12:46;;;;;;;6.13;2.50;;;;;;;;;;5056941;28;20465;-81
2021/08/02 11:15:12;;;;;;;6.38;2.38;;;;;;;;;;5057941;28;20017;-82
2021/08/02 11:17:50;;;;;;;8.15;2.55;;;;;;;;;;5061834;28;20028;-81
2021/08/02 11:20:17;;;;;;;7.30;2.67;;;;;;;;;;5057786;28;20064;-82
2021/08/02 11:22:56;;;;;;;7.57;3.38;;;;;;;;;;5055785;28;20103;-83
2021/08/02 11:25:37;;;;;;;6.93;2.97;;;;;;;;;;5054500;28;20025;-80
2021/08/02 11:28:03;;;;;;;6.32;2.40;;;;;;;;;;5055804;28;20052;-88
2021/08/02 11:30:30;;;;;;;6.90;2.30;;;;;;;;;;5054683;28;20025;-83
2021/08/02 11:32:56;;;;;;;8.70;2.83;;;;;;;;;;5055418;28;20032;-84
2021/08/02 11:35:35;;;;;;;6.68;2.33;;;;;;;;;;5057355;28;20024;-82
2021/08/02 11:38:02;;;;;;;6.97;2.20;;;;;;;;;;5059745;28;20044;-87
2021/08/02 11:40:36;;;;;;;8.60;1.92;;;;;;;;;;5054500;28;20481;-86
2021/08/02 11:43:04;;;;;;;6.78;2.28;;;;;;;;;;5055017;28;20469;-83
2021/08/02 11:45:30;;;;;;;6.72;1.58;;;;;;;;;;5054383;28;20024;-81
2021/08/02 11:47:58;;;;;;;7.88;2.42;;;;;;;;;;5054196;28;20508;-81
2021/08/02 11:50:28;;;;;;;7.70;2.55;;;;;;;;;;5058663;28;20017;-85
2021/08/02 11:52:59;;;;;;;6.28;2.08;;;;;;;;;;5058267;28;20112;-81
2021/08/02 11:55:25;;;;;;;8.57;2.05;;;;;;;;;;5038794;28;20025;-81
2021/08/02 11:57:58;;;;;;;6.65;2.65;;;;;;;;;;5056926;28;20032;-86
2021/08/02 12:00:24;;;;;;;6.55;2.70;;;;;;;;;;5037496;28;20392;-86
2021/08/02 12:02:51;;;;;;;6.88;2.97;;;;;;;;;;5054780;28;20033;-84
2021/08/02 12:05:24;;;;;;;7.35;2.40;;;;;;;;;;5055394;28;20025;-87
2021/08/02 12:07:50;;;;;;;6.82;2.72;;;;;;;;;;5053788;28;20083;-85
2021/08/02 12:10:18;;;;;;;5.82;1.90;;;;;;;;;;5054616;28;20052;-86
2021/08/02 12:12:55;;;;;;;8.05;2.42;;;;;;;;;;5055480;28;20076;-85
2021/08/02 12:15:24;;;;;;;6.50;2.40;;;;;;;;;;5055874;28;20021;-84
2021/08/02 12:17:52;;;;;;;7.07;2.13;;;;;;;;;;5056386;28;20024;-88
2021/08/02 12:20:34;;;;;;;8.80;2.75;;;;;;;;;;5056568;28;20112;-85
2021/08/02 12:23:01;;;;;;;8.43;2.58;;;;;;;;;;5055592;28;20028;-80
2021/08/02 12:25:46;;;;;;;5.88;2.20;;;;;;;;;;5055012;28;20040;-82
2021/08/02 12:28:12;;;;;;;5.03;2.42;;;;;;;;;;5054448;28;20428;-86
2021/08/02 12:30:39;;;;;;;7.18;2.00;;;;;;;;;;5057129;28;20548;-86
2021/08/02 12:33:06;;;;;;;10.35;2.10;;;;;;;;;;5055416;28;20496;-87
2021/08/02 12:35:32;;;;;;;4.82;1.85;;;;;;;;;;5055411;28;20060;-89
2021/08/02 12:37:59;;;;;;;6.05;2.10;;;;;;;;;;5059043;28;20025;-85
2021/08/02 12:40:25;;;;;;;6.45;2.35;;;;;;;;;;5059933;28;20094;-84
2021/08/02 12:42:51;;;;;;;4.97;2.10;;;;;;;;;;5059957;28;20107;-79
2021/08/02 12:45:23;;;;;;;6.25;1.90;;;;;;;;;;5058267;28;20025;-82
2021/08/02 12:47:50;;;;;;;5.32;2.10;;;;;;;;;;5043135;28;20032;-84
2021/08/02 12:50:22;;;;;;;6.03;2.58;;;;;;;;;;5059245;28;20020;-83
2021/08/02 12:52:49;;;;;;;8.65;1.67;;;;;;;;;;5050828;28;20028;-87
2021/08/02 12:55:17;;;;;;;8.88;2.10;;;;;;;;;;5067457;28;20028;-80
2021/08/02 12:57:43;;;;;;;5.15;1.80;;;;;;;;;;5068059;28;20119;-87
2021/08/02 13:00:11;;;;;;;6.68;1.85;;;;;;;;;;5069731;28;20393;-80
2021/08/02 13:02:38;;;;;;;6.80;2.00;;;;;;;;;;5067236;28;20527;-85
2021/08/02 13:05:05;;;;;;;6.47;2.50;;;;;;;;;;5061314;28;20032;-89
2021/08/02 13:07:31;;;;;;;8.10;2.10;;;;;;;;;;5064525;28;20530;-85
2021/08/02 13:09:57;;;;;;;8.73;1.70;;;;;;;;;;5064557;28;20115;-83
2021/08/02 13:12:24;;;;;;;7.10;2.17;;;;;;;;;;5066752;28;20048;-84
2021/08/02 13:14:52;;;;;;;8.55;3.63;;;;;;;;;;5047046;28;20029;-81
2021/08/02 13:17:18;;;;;;;7.72;2.25;;;;;;;;;;5069708;28;20012;-89
2021/08/02 13:19:45;;;;;;;8.18;1.60;;;;;;;;;;5077401;28;20038;-88
2021/08/02 13:22:14;;;;;;;8.63;2.22;;;;;;;;;;5059826;28;20024;-84
2021/08/02 13:27:24;;;;;;;5.03;1.85;;;;;;;;;;5080468;28;20102;-85
2021/08/02 13:29:50;;;;;;;7.32;2.38;;;;;;;;;;5080389;28;20059;-85
2021/08/02 13:32:16;;;;;;;7.03;2.25;;;;;;;;;;5081630;28;20028;-86
2021/08/02 13:34:45;;;;;;;10.10;2.08;;;;;;;;;;5062906;28;20503;-87
2021/08/02 13:37:14;;;;;;;4.72;1.85;;;;;;;;;;5060428;28;20033;-81
2021/08/02 13:39:41;;;;;;;5.30;2.17;;;;;;;;;;5077154;28;20030;-86
2021/08/02 13:42:08;;;;;;;7.10;2.53;;;;;;;;;;5077907;28;20059;-84
2021/08/02 13:44:34;;;;;;;12.23;2.35;;;;;;;;;;5076854;28;20051;-87
2021/08/02 13:47:00;;;;;;;7.82;2.67;;;;;;;;;;5072711;28;21416;-81
2021/08/02 13:49:26;;;;;;;6.05;2.15;;;;;;;;;;5064561;28;20089;-82
2021/08/02 13:51:52;;;;;;;8.25;2.50;;;;;;;;;;5073047;28;20468;-87
2021/08/02 13:54:18;;;;;;;5.38;2.95;;;;;;;;;;5075897;28;20387;-81
2021/08/02 13:56:44;;;;;;;10.02;2.08;;;;;;;;;;5064591;28;20465;-84
2021/08/02 13:59:10;;;;;;;6.97;2.10;;;;;;;;;;5064967;28;20031;-81
2021/08/02 14:01:40;;;;;;;9.57;2.20;;;;;;;;;;5077254;28;20041;-80
2021/08/02 14:04:05;;;;;;;13.23;2.28;;;;;;;;;;5076289;28;20251;-83
2021/08/02 14:06:32;;;;;;;5.28;1.80;;;;;;;;;;5076426;28;20070;-84
2021/08/02 14:08:58;;;;;;;9.80;2.38;;;;;;;;;;5076001;28;20051;-90
2021/08/02 14:11:25;;;;;;;6.53;2.45;;;;;;;;;;5076081;28;20024;-87
2021/08/02 14:13:56;;;;;;;6.32;2.20;;;;;;;;;;5076148;28;20065;-84
2021/08/02 14:16:24;;;;;;;8.70;1.95;;;;;;;;;;5075762;28;20020;-79
2021/08/02 14:18:56;;;;;;;8.57;2.60;;;;;;;;;;5076124;28;20574;-85
2021/08/02 14:21:22;;;;;;;6.63;2.13;;;;;;;;;;5077723;28;20028;-88
2021/08/02 14:23:48;;;;;;;8.13;1.73;;;;;;;;;;5077603;28;20050;-83
2021/08/02 14:26:14;;;;;;;6.20;2.72;;;;;;;;;;5075521;28;20370;-83
2021/08/02 14:28:42;;;;;;;5.57;2.38;;;;;;;;;;5076573;28;20111;-83
2021/08/02 14:31:08;;;;;;;10.55;2.00;;;;;;;;;;5067411;28;20024;-84
2021/08/02 14:33:35;;;;;;;7.30;1.92;;;;;;;;;;5070416;28;20033;-86
2021/08/02 14:36:07;;;;;;;8.43;2.85;;;;;;;;;;5047941;28;20020;-84
2021/08/02 14:38:34;;;;;;;7.05;1.33;;;;;;;;;;5063996;28;20060;-84
2021/08/02 14:41:01;;;;;;;9.05;1.83;;;;;;;;;;5066449;28;20095;-84
2021/08/02 14:43:29;;;;;;;5.75;2.30;;;;;;;;;;5067599;28;20379;-85
2021/08/02 14:45:55;;;;;;;6.28;2.65;;;;;;;;;;5065016;28;20381;-85
2021/08/02 14:48:26;;;;;;;12.18;3.10;;;;;;;;;;5065106;28;20017;-85
2021/08/02 14:50:59;;;;;;;5.70;1.50;;;;;;;;;;5072860;28;20028;-84